createdAt,value
2022-11-29T15:44:34.218Z,82.35
2022-11-29T15:47:23.537Z,83.76
2022-11-29T15:49:53.316Z,85.26
2022-11-29T15:52:31.059Z,85.63
2022-11-29T15:55:03.668Z,85.88
2022-11-29T15:57:36.442Z,85.82
2022-11-29T16:00:24.136Z,84.90
2022-11-29T16:03:02.619Z,84.86
2022-11-29T16:05:37.469Z,84.71
2022-11-29T16:08:13.883Z,84.23
2022-11-29T16:10:47.738Z,83.73
2022-11-29T16:13:36.211Z,82.56
2022-11-29T16:16:12.442Z,82.53
2022-11-29T16:18:42.780Z,82.38
2022-11-29T16:21:26.674Z,81.61
2022-11-29T16:23:55.647Z,81.81
2022-11-29T16:26:34.847Z,81.11
2022-11-29T16:29:03.569Z,81.37
2022-11-29T16:31:36.028Z,81.27
2022-11-29T16:34:22.240Z,80.74
2022-11-29T16:37:08.394Z,79.73
2022-11-29T16:39:38.645Z,80.41
2022-11-29T16:42:08.538Z,80.23
2022-11-29T16:44:41.944Z,80.18
2022-11-29T16:47:25.652Z,79.68
2022-11-29T16:50:02.641Z,79.35
2022-11-29T16:52:34.613Z,79.28
2022-11-29T16:55:02.295Z,79.25
2022-11-29T16:57:30.462Z,78.92
2022-11-29T16:59:58.354Z,79.05
2022-11-29T17:02:29.065Z,78.96
2022-11-29T17:04:58.284Z,78.41
2022-11-29T17:07:32.699Z,78.11
2022-11-29T17:10:00.533Z,78.26
2022-11-29T17:12:29.397Z,78.35
2022-11-29T17:14:57.034Z,78.20
2022-11-29T17:17:24.807Z,78.09
2022-11-29T17:19:53.609Z,77.94
2022-11-29T17:22:21.630Z,77.84
2022-11-29T17:24:50.298Z,77.74
2022-11-29T17:27:18.217Z,77.83
2022-11-29T17:29:45.927Z,77.70
2022-11-29T17:32:13.580Z,77.46
2022-11-29T17:34:41.442Z,76.79
2022-11-29T17:37:09.215Z,76.95
2022-11-29T17:39:37.002Z,76.81
2022-11-29T17:42:04.679Z,76.91
2022-11-29T17:44:34.157Z,77.10
2022-11-29T17:47:01.766Z,77.12
2022-11-29T17:49:30.532Z,77.14
2022-11-29T17:51:58.960Z,76.95
2022-11-29T17:54:26.945Z,77.00
2022-11-29T17:56:55.347Z,76.64
2022-11-29T17:59:23.138Z,76.72
2022-11-29T18:01:50.893Z,77.03
2022-11-29T18:04:18.824Z,77.02
2022-11-29T18:06:50.211Z,76.83
2022-11-29T18:09:20.033Z,76.86
2022-11-29T18:11:50.109Z,76.67
2022-11-29T18:14:21.456Z,76.36
2022-11-29T18:16:49.627Z,76.57
2022-11-29T18:19:19.745Z,76.95
2022-11-29T18:21:48.319Z,77.16
2022-11-29T18:24:16.004Z,76.83
2022-11-29T18:26:44.285Z,76.78
2022-11-29T18:29:12.747Z,76.94
2022-11-29T18:31:44.064Z,77.00
2022-11-29T18:34:13.404Z,77.11
2022-11-29T18:36:43.864Z,77.28
2022-11-29T18:39:16.847Z,77.64
2022-11-29T18:41:49.540Z,77.85
2022-11-29T18:44:21.908Z,77.92
2022-11-29T18:46:51.712Z,78.01
2022-11-29T18:49:20.488Z,77.96
2022-11-29T18:51:53.067Z,77.85
2022-11-29T18:54:23.063Z,77.98
2022-11-29T18:56:52.357Z,77.83
2022-11-29T18:59:22.420Z,77.93
2022-11-29T19:01:50.362Z,78.08
2022-11-29T19:04:20.827Z,78.09
2022-11-29T19:06:49.582Z,77.90
2022-11-29T19:09:21.465Z,77.59
2022-11-29T19:11:50.040Z,77.59
2022-11-29T19:14:18.643Z,77.58
2022-11-29T19:16:48.898Z,77.60
2022-11-29T19:19:18.875Z,77.57
2022-11-29T19:21:47.507Z,77.34
2022-11-29T19:24:18.000Z,77.28
2022-11-29T19:26:47.536Z,76.92
2022-11-29T19:29:15.981Z,76.83
2022-11-29T19:31:43.881Z,76.77
2022-11-29T19:34:11.713Z,76.51
2022-11-29T19:36:44.788Z,76.44
2022-11-29T19:39:17.070Z,76.22
2022-11-29T19:41:47.217Z,76.44
2022-11-29T19:44:15.647Z,76.67
2022-11-29T19:46:46.115Z,76.79
2022-11-29T19:49:13.785Z,76.62
2022-11-29T19:51:41.879Z,76.44
2022-11-29T19:54:10.649Z,76.48
2022-11-29T19:56:39.036Z,76.60
2022-11-29T19:59:08.132Z,76.66
2022-11-29T20:01:40.952Z,76.42
2022-11-29T20:04:11.710Z,76.41
2022-11-29T20:06:39.936Z,75.98
2022-11-29T20:09:07.978Z,76.21
2022-11-29T20:11:35.960Z,75.76
2022-11-29T20:14:05.843Z,75.72
2022-11-29T20:16:34.052Z,75.36
2022-11-29T20:19:02.019Z,75.83
2022-11-29T20:21:31.784Z,76.12
2022-11-29T20:24:05.863Z,75.75
2022-11-29T20:26:36.336Z,75.43
2022-11-29T20:29:06.218Z,75.49
2022-11-29T20:31:35.648Z,75.45
2022-11-29T20:34:06.898Z,75.75
2022-11-29T20:37:00.895Z,75.79
2022-11-29T20:39:37.906Z,76.05
2022-11-29T20:42:27.396Z,76.16
2022-11-29T20:44:57.911Z,76.13
2022-11-29T20:47:33.815Z,76.28
2022-11-29T20:50:01.881Z,76.41
2022-11-29T20:53:00.848Z,76.27
2022-11-29T20:55:28.687Z,76.58
2022-11-29T20:57:56.435Z,76.54
2022-11-29T21:00:24.422Z,76.53
2022-11-29T21:02:52.140Z,76.13
2022-11-29T21:05:19.978Z,76.23
2022-11-29T21:07:47.776Z,76.36
2022-11-29T21:10:15.744Z,76.35
2022-11-29T21:12:45.872Z,76.48
2022-11-29T21:15:15.340Z,76.61
2022-11-29T21:17:43.540Z,76.66
2022-11-29T21:20:37.883Z,76.72
2022-11-29T21:23:18.783Z,76.96
2022-11-29T21:26:10.434Z,76.92
2022-11-29T21:28:47.035Z,77.01
2022-11-29T21:31:18.517Z,77.16
2022-11-29T21:33:46.938Z,77.41
